Time;durP1;ratioP1;P1;durP2;ratioP2;P2;SDS_P1;SDS_P2;PMS_P1;PMS_P2;Temp;Humidity;BMP_temperature;BMP_pressure;BME280_temperature;BME280_humidity;BME280_pressure;Samples;Min_cycle;Max_cycle;Signal;HPM_P1;HPM_P2
2022/06/09 00:01:54;;;;;;;16.67;13.15;;;;;;;17.55;79.86;99617.30;1558070;90;27593;-66
2022/06/09 00:04:32;;;;;;;15.28;12.63;;;;;;;17.52;79.84;99622.94;1562991;91;25697;-66
2022/06/09 00:07:06;;;;;;;16.30;12.63;;;;;;;17.49;79.92;99627.00;1588429;90;27353;-66
2022/06/09 00:09:40;;;;;;;15.65;13.80;;;;;;;17.47;80.09;99626.56;1588320;90;25504;-65
2022/06/09 00:12:08;;;;;;;14.80;13.28;;;;;;;17.47;80.29;99619.16;1603608;84;25545;-66
2022/06/09 00:14:37;;;;;;;16.25;13.28;;;;;;;17.49;80.61;99614.70;1671491;85;25688;-66
2022/06/09 00:17:05;;;;;;;15.75;13.78;;;;;;;17.50;80.68;99613.52;1673110;85;25605;-65
2022/06/09 00:19:32;;;;;;;16.35;13.95;;;;;;;17.53;80.84;99619.62;1673036;85;27435;-65
2022/06/09 00:21:58;;;;;;;16.07;13.90;;;;;;;17.55;80.96;99622.20;1672966;85;25622;-66
2022/06/09 00:24:25;;;;;;;18.57;15.38;;;;;;;17.60;81.22;99618.33;1673052;85;25585;-65
2022/06/09 00:26:51;;;;;;;18.20;14.65;;;;;;;17.65;81.25;99616.62;1673027;85;25564;-65
2022/06/09 00:29:17;;;;;;;17.98;15.20;;;;;;;17.68;81.18;99626.83;1673064;85;25406;-65
2022/06/09 00:31:43;;;;;;;21.35;15.35;;;;;;;17.69;81.23;99633.88;1673017;85;27388;-65
2022/06/09 00:34:09;;;;;;;16.75;14.78;;;;;;;17.73;81.34;99631.96;1672967;85;25399;-65
2022/06/09 00:36:36;;;;;;;18.35;15.60;;;;;;;17.74;81.49;99628.08;1673061;85;25587;-66
2022/06/09 00:39:03;;;;;;;18.67;15.32;;;;;;;17.76;81.52;99634.55;1673034;85;25957;-66
2022/06/09 00:41:29;;;;;;;19.80;15.70;;;;;;;17.81;81.54;99632.84;1673095;85;25455;-65
2022/06/09 00:44:23;;;;;;;20.92;15.70;;;;;;;17.83;81.38;99629.74;1673169;85;29585;-65
2022/06/09 00:46:57;;;;;;;20.62;16.48;;;;;;;17.85;81.34;99625.45;1673001;85;25667;-65
2022/06/09 00:49:38;;;;;;;33.40;17.27;;;;;;;17.89;81.26;99621.41;1673052;85;25451;-66
2022/06/09 00:52:08;;;;;;;19.70;16.23;;;;;;;17.91;81.25;99624.00;1672983;85;25554;-64
2022/06/09 00:54:43;;;;;;;23.75;17.15;;;;;;;17.90;81.16;99618.31;1673082;85;25485;-64
2022/06/09 00:57:24;;;;;;;19.27;17.02;;;;;;;17.88;81.04;99623.97;1673051;85;27324;-64
2022/06/09 00:59:55;;;;;;;20.88;16.67;;;;;;;17.83;81.08;99629.74;1673088;85;25677;-64
2022/06/09 01:02:23;;;;;;;21.57;17.30;;;;;;;17.81;81.13;99633.41;1673150;84;25525;-65
2022/06/09 01:04:52;;;;;;;21.00;16.32;;;;;;;17.79;81.20;99635.14;1673135;85;25644;-66
2022/06/09 01:07:24;;;;;;;18.75;15.95;;;;;;;17.79;81.50;99630.27;1673327;85;25604;-65
2022/06/09 01:09:50;;;;;;;20.02;16.10;;;;;;;17.80;81.57;99637.32;1673166;85;27446;-65
2022/06/09 01:12:33;;;;;;;22.85;16.87;;;;;;;17.82;81.61;99638.50;1673063;85;25898;-65
2022/06/09 01:15:17;;;;;;;18.95;16.62;;;;;;;17.81;81.37;99639.69;1673209;85;25418;-65
2022/06/09 01:18:21;;;;;;;21.77;15.90;;;;;;;17.81;81.50;99637.51;1671935;85;25996;-65
2022/06/09 01:21:02;;;;;;;20.88;17.07;;;;;;;17.81;81.76;99643.78;1661376;85;25571;-64
2022/06/09 01:24:01;;;;;;;20.08;17.80;;;;;;;17.86;82.06;99648.95;1673285;85;27960;-65
2022/06/09 01:26:51;;;;;;;20.17;16.57;;;;;;;17.93;82.01;99655.09;1673252;85;25878;-66
2022/06/09 01:29:39;;;;;;;20.80;17.32;;;;;;;17.99;81.88;99658.27;1673271;85;25580;-64
2022/06/09 01:32:29;;;;;;;22.15;17.40;;;;;;;17.98;81.77;99652.58;1673243;85;26065;-65
2022/06/09 01:35:28;;;;;;;24.25;18.07;;;;;;;17.99;81.72;99656.31;1673247;85;25401;-65
2022/06/09 01:37:58;;;;;;;21.30;18.20;;;;;;;17.98;81.56;99649.28;1627320;88;27543;-65
2022/06/09 01:40:25;;;;;;;24.80;17.87;;;;;;;17.98;81.71;99642.44;1631971;87;25646;-66
2022/06/09 01:42:56;;;;;;;21.82;18.20;;;;;;;17.99;81.73;99644.59;1632033;87;25514;-64
2022/06/09 01:45:30;;;;;;;23.85;17.85;;;;;;;17.98;81.36;99647.91;1632049;87;25975;-65
2022/06/09 01:48:08;;;;;;;20.85;18.60;;;;;;;17.95;81.39;99653.34;1631550;87;25478;-65
2022/06/09 01:50:51;;;;;;;25.20;19.85;;;;;;;17.93;81.40;99655.09;1632062;87;27345;-65
2022/06/09 01:53:29;;;;;;;21.87;18.40;;;;;;;17.90;81.40;99658.56;1632066;87;25671;-65
2022/06/09 01:56:04;;;;;;;25.10;18.50;;;;;;;17.86;81.25;99659.06;1632021;87;25454;-67
2022/06/09 01:58:35;;;;;;;24.50;19.25;;;;;;;17.80;81.29;99655.88;1631313;87;25998;-65
2022/06/09 02:01:02;;;;;;;19.15;16.55;;;;;;;17.77;81.46;99647.05;1632276;87;25537;-65
2022/06/09 02:03:33;;;;;;;20.95;17.90;;;;;;;17.73;81.53;99636.66;1633434;87;27975;-65
2022/06/09 02:06:01;;;;;;;22.87;18.12;;;;;;;17.72;81.50;99641.91;1633401;87;25718;-66
2022/06/09 02:08:32;;;;;;;22.60;19.48;;;;;;;17.69;81.53;99643.45;1611651;87;25638;-65
2022/06/09 02:11:00;;;;;;;20.45;18.23;;;;;;;17.66;81.49;99644.78;1632341;87;25525;-65
2022/06/09 02:13:31;;;;;;;23.47;19.20;;;;;;;17.62;81.46;99637.91;1633377;87;25476;-65
2022/06/09 02:16:05;;;;;;;24.07;19.25;;;;;;;17.59;81.55;99632.38;1676219;85;27353;-65
2022/06/09 02:18:38;;;;;;;20.37;18.25;;;;;;;17.53;81.49;99624.50;1679894;85;25207;-65
2022/06/09 02:21:13;;;;;;;23.12;18.85;;;;;;;17.51;81.48;99621.94;1679994;85;25602;-67
2022/06/09 02:23:40;;;;;;;21.23;18.00;;;;;;;17.49;81.60;99620.95;1679994;85;25653;-65
2022/06/09 02:26:07;;;;;;;22.87;18.95;;;;;;;17.46;81.40;99623.05;1680102;85;25608;-65
2022/06/09 02:28:34;;;;;;;23.38;19.62;;;;;;;17.42;81.38;99624.96;1680006;85;27274;-66
2022/06/09 02:31:02;;;;;;;24.55;19.73;;;;;;;17.39;81.67;99622.19;1679840;85;25631;-66
2022/06/09 02:33:29;;;;;;;24.18;19.80;;;;;;;17.35;81.78;99623.52;1680007;85;25585;-66
2022/06/09 02:35:55;;;;;;;25.90;21.42;;;;;;;17.31;81.83;99627.53;1680047;85;25592;-66
2022/06/09 02:38:23;;;;;;;25.08;20.43;;;;;;;17.28;82.05;99628.30;1680054;85;25628;-66
2022/06/09 02:40:50;;;;;;;24.30;20.90;;;;;;;17.24;81.97;99626.67;1679989;85;27931;-66
2022/06/09 02:43:16;;;;;;;26.27;22.20;;;;;;;17.20;82.03;99625.27;1679896;85;25411;-66
2022/06/09 02:45:43;;;;;;;25.97;20.30;;;;;;;17.18;82.06;99626.99;1679952;85;25597;-65
2022/06/09 02:48:12;;;;;;;26.20;20.82;;;;;;;17.16;82.43;99632.05;1679916;85;25645;-66
2022/06/09 02:50:40;;;;;;;26.35;21.70;;;;;;;17.14;82.46;99634.34;1680091;85;25408;-66
2022/06/09 02:53:07;;;;;;;25.00;21.42;;;;;;;17.14;82.64;99630.83;1679975;85;27855;-66
2022/06/09 02:55:35;;;;;;;25.35;22.25;;;;;;;17.11;82.85;99623.36;1679872;85;25617;-66
2022/06/09 02:58:01;;;;;;;26.17;21.60;;;;;;;17.09;82.88;99619.63;1679980;85;25601;-66
2022/06/09 03:00:28;;;;;;;26.07;22.20;;;;;;;17.09;82.95;99620.22;1679890;85;27592;-65
2022/06/09 03:03:02;;;;;;;30.57;22.30;;;;;;;17.08;83.11;99624.91;1703609;84;25802;-65
2022/06/09 03:05:33;;;;;;;25.52;21.15;;;;;;;17.09;83.33;99628.41;1706998;84;27391;-65
2022/06/09 03:07:59;;;;;;;27.22;22.60;;;;;;;17.10;83.56;99629.41;1707016;84;25623;-65
2022/06/09 03:10:25;;;;;;;28.27;22.87;;;;;;;17.11;83.83;99619.27;1707086;84;25392;-65
2022/06/09 03:12:53;;;;;;;29.37;23.98;;;;;;;17.12;83.88;99622.22;1707207;84;25562;-65
2022/06/09 03:15:23;;;;;;;29.20;23.32;;;;;;;17.13;84.27;99619.12;1707282;84;25667;-65
2022/06/09 03:17:51;;;;;;;28.67;22.95;;;;;;;17.13;84.44;99615.02;1707219;84;27903;-65
2022/06/09 03:20:22;;;;;;;31.10;24.15;;;;;;;17.16;84.64;99617.02;1707098;84;25458;-65
2022/06/09 03:22:48;;;;;;;27.90;24.18;;;;;;;17.18;84.82;99613.33;1707273;84;25481;-65
2022/06/09 03:25:15;;;;;;;30.92;25.02;;;;;;;17.23;85.10;99611.42;1707219;84;25882;-65
2022/06/09 03:27:41;;;;;;;30.95;25.20;;;;;;;17.27;85.15;99605.44;1707279;84;25611;-65
2022/06/09 03:30:09;;;;;;;30.70;24.35;;;;;;;17.30;85.34;99610.17;1707271;84;27354;-65
2022/06/09 03:32:36;;;;;;;33.23;27.30;;;;;;;17.32;85.39;99611.95;1707314;84;25605;-66
2022/06/09 03:35:03;;;;;;;31.35;26.48;;;;;;;17.36;85.47;99617.64;1707123;84;25503;-68
2022/06/09 03:37:30;;;;;;;33.25;26.57;;;;;;;17.36;85.33;99617.64;1707082;84;25592;-66
2022/06/09 03:39:56;;;;;;;32.15;26.00;;;;;;;17.39;85.49;99616.72;1707181;84;25467;-66
2022/06/09 03:42:22;;;;;;;34.80;26.23;;;;;;;17.41;85.76;99609.70;1707201;84;27496;-66
2022/06/09 03:44:48;;;;;;;32.83;27.27;;;;;;;17.44;85.76;99615.03;1707152;84;25688;-66
2022/06/09 03:47:14;;;;;;;32.33;26.68;;;;;;;17.48;86.01;99611.74;1707182;84;25662;-66
2022/06/09 03:49:41;;;;;;;32.28;26.82;;;;;;;17.49;85.98;99610.01;1707051;84;25601;-66
2022/06/09 03:52:08;;;;;;;33.98;26.70;;;;;;;17.51;85.94;99610.42;1707128;84;25437;-66
2022/06/09 03:54:34;;;;;;;31.70;26.70;;;;;;;17.53;86.00;99614.15;1707121;84;27350;-66
2022/06/09 03:57:01;;;;;;;31.35;26.23;;;;;;;17.55;86.05;99608.53;1707065;83;25446;-66
2022/06/09 03:59:27;;;;;;;31.10;26.80;;;;;;;17.60;86.10;99606.02;1707090;84;25590;-66
2022/06/09 04:01:53;;;;;;;35.92;28.95;;;;;;;17.63;86.23;99603.14;1707067;84;26201;-66
2022/06/09 04:04:19;;;;;;;34.48;27.80;;;;;;;17.68;86.39;99597.34;1707114;84;25576;-66
2022/06/09 04:06:45;;;;;;;34.65;27.90;;;;;;;17.73;86.49;99602.47;1707237;84;27332;-66
2022/06/09 04:09:13;;;;;;;36.50;27.60;;;;;;;17.79;86.48;99600.17;1706961;84;27240;-66
2022/06/09 04:11:39;;;;;;;34.40;26.68;;;;;;;17.84;86.60;99591.08;1706544;83;25485;-66
2022/06/09 04:14:06;;;;;;;32.38;26.60;;;;;;;17.88;86.74;99585.66;1707075;84;25400;-66
2022/06/09 04:16:40;;;;;;;30.80;26.80;;;;;;;17.94;86.95;99581.41;1707157;84;25589;-66
2022/06/09 04:19:10;;;;;;;33.53;26.85;;;;;;;18.01;86.93;99578.73;1707152;84;27488;-66
2022/06/09 04:21:37;;;;;;;33.20;25.90;;;;;;;18.07;86.96;99581.94;1707002;84;25383;-66
2022/06/09 04:24:26;;;;;;;33.08;26.80;;;;;;;18.13;87.03;99586.47;1707105;84;25649;-66
2022/06/09 04:26:52;;;;;;;30.52;25.55;;;;;;;18.18;87.03;99584.17;1736925;82;25451;-65
2022/06/09 04:29:19;;;;;;;31.10;25.72;;;;;;;18.25;87.23;99585.62;1759752;81;25528;-66
2022/06/09 04:31:45;;;;;;;28.40;25.23;;;;;;;18.29;86.76;99587.02;1759667;81;26945;-67
2022/06/09 04:34:11;;;;;;;32.10;26.12;;;;;;;18.35;86.77;99591.55;1759651;81;25542;-67
2022/06/09 04:36:38;;;;;;;32.65;24.72;;;;;;;18.40;86.93;99585.73;1759745;81;25524;-67
2022/06/09 04:39:06;;;;;;;29.30;24.75;;;;;;;18.45;86.98;99589.48;1759660;81;25991;-67
2022/06/09 04:41:32;;;;;;;32.15;27.07;;;;;;;18.53;87.19;99593.08;1759912;81;25501;-64
2022/06/09 04:43:58;;;;;;;33.13;27.15;;;;;;;18.60;87.24;99593.12;1759716;81;27948;-65
2022/06/09 04:46:26;;;;;;;29.75;25.48;;;;;;;18.67;87.37;99590.43;1759618;81;25561;-65
2022/06/09 04:48:53;;;;;;;28.85;24.40;;;;;;;18.75;87.16;99586.58;1759694;81;25477;-66
2022/06/09 04:51:22;;;;;;;28.10;25.08;;;;;;;18.82;87.35;99581.73;1759589;81;25495;-65
2022/06/09 04:53:50;;;;;;;27.05;24.12;;;;;;;18.92;87.62;99581.03;1759919;81;25662;-66
2022/06/09 04:56:19;;;;;;;26.85;23.98;;;;;;;19.02;87.69;99576.20;1759627;81;27320;-65
2022/06/09 04:58:48;;;;;;;32.00;24.30;;;;;;;19.15;87.74;99564.90;1759569;81;25583;-65
2022/06/09 05:01:25;;;;;;;29.18;23.42;;;;;;;19.24;87.52;99557.13;1759931;81;32907;-66
2022/06/09 05:03:52;;;;;;;29.12;24.40;;;;;;;19.32;87.01;99556.55;1758210;81;25941;-66
2022/06/09 05:06:21;;;;;;;26.60;22.73;;;;;;;19.41;86.67;99558.36;1757592;81;25468;-66
2022/06/09 05:08:49;;;;;;;26.40;21.93;;;;;;;19.47;86.37;99566.98;1757659;81;27346;-66
2022/06/09 05:11:16;;;;;;;30.05;22.80;;;;;;;19.52;86.26;99570.73;1757450;81;25586;-66
2022/06/09 05:13:43;;;;;;;24.23;21.73;;;;;;;19.59;86.23;99578.97;1757452;81;25416;-66
2022/06/09 05:16:11;;;;;;;25.68;22.87;;;;;;;19.64;86.01;99586.05;1757136;81;26263;-65
2022/06/09 05:18:38;;;;;;;25.43;22.45;;;;;;;19.67;85.77;99584.68;1757512;81;25609;-66
2022/06/09 05:21:06;;;;;;;26.85;22.85;;;;;;;19.71;85.61;99588.20;1729803;81;27134;-66
2022/06/09 05:23:34;;;;;;;24.77;22.07;;;;;;;19.75;85.54;99597.28;1757421;81;25634;-66
2022/06/09 05:26:03;;;;;;;25.35;22.58;;;;;;;19.79;85.32;99597.28;1755567;81;25574;-66
2022/06/09 05:28:31;;;;;;;25.00;22.27;;;;;;;19.82;85.32;99599.83;1754460;81;25625;-66
2022/06/09 05:30:58;;;;;;;26.80;23.92;;;;;;;19.85;85.10;99599.05;1754507;81;25645;-66
2022/06/09 05:33:24;;;;;;;24.77;22.20;;;;;;;19.88;85.26;99599.05;1754542;81;27385;-66
2022/06/09 05:35:51;;;;;;;26.23;23.40;;;;;;;19.95;85.53;99605.95;1754477;81;25768;-64
2022/06/09 05:46:34;;;;;;;25.35;21.40;;;;;;;20.55;86.34;99620.13;1754395;81;27339;-63
2022/06/09 05:49:02;;;;;;;24.63;22.02;;;;;;;20.70;85.59;99624.47;1754327;81;25617;-64
2022/06/09 05:51:31;;;;;;;22.73;20.35;;;;;;;20.83;85.08;99623.45;1754305;81;25689;-63
2022/06/09 05:53:59;;;;;;;22.25;19.85;;;;;;;20.99;84.83;99616.14;1754367;81;32447;-64
2022/06/09 05:56:25;;;;;;;23.80;19.55;;;;;;;21.13;84.22;99602.17;1754359;81;25580;-64
2022/06/09 05:58:51;;;;;;;26.65;20.60;;;;;;;21.26;84.11;99599.97;1746745;80;27371;-64
2022/06/09 06:01:18;;;;;;;26.73;21.73;;;;;;;21.42;83.96;99600.91;1742022;81;26516;-64
2022/06/09 06:03:45;;;;;;;20.02;18.02;;;;;;;21.56;83.99;99591.05;1745884;82;25433;-64
2022/06/09 06:08:55;;;;;;;22.50;17.37;;;;;;;21.95;82.73;99577.05;1738615;82;25537;-65
2022/06/09 06:11:23;;;;;;;18.40;16.70;;;;;;;22.06;81.89;99577.58;1726598;82;27975;-63
2022/06/09 06:13:50;;;;;;;19.05;17.05;;;;;;;22.16;81.17;99583.00;1741277;82;25446;-63
2022/06/09 06:16:17;;;;;;;18.07;15.40;;;;;;;22.21;80.71;99581.78;1742481;82;25566;-64
2022/06/09 06:18:43;;;;;;;18.82;16.93;;;;;;;22.24;79.56;99583.73;1746869;82;25549;-64
2022/06/09 06:21:09;;;;;;;19.95;17.73;;;;;;;22.27;79.66;99581.55;1737100;82;25494;-64
2022/06/09 06:23:36;;;;;;;17.50;15.75;;;;;;;22.32;79.24;99585.28;1735535;82;27331;-64
2022/06/09 06:26:02;;;;;;;18.48;16.35;;;;;;;22.36;79.38;99592.91;1742413;82;25706;-63
2022/06/09 06:28:29;;;;;;;17.90;16.02;;;;;;;22.42;79.22;99600.73;1740985;82;25709;-63
2022/06/09 06:30:55;;;;;;;18.30;16.45;;;;;;;22.47;78.57;99603.83;1747598;80;25764;-65
2022/06/09 06:33:22;;;;;;;17.70;15.93;;;;;;;22.53;78.67;99598.69;1757993;81;25653;-68
2022/06/09 06:35:50;;;;;;;17.70;15.90;;;;;;;22.66;78.83;99609.97;1746733;81;27948;-64
2022/06/09 06:38:16;;;;;;;28.07;24.90;;;;;;;22.79;78.59;99608.88;1746155;81;25552;-65
2022/06/09 06:40:43;;;;;;;18.73;16.82;;;;;;;22.92;78.20;99612.09;1738963;80;25864;-64
2022/06/09 06:43:09;;;;;;;19.25;16.35;;;;;;;23.08;78.13;99610.16;1710647;82;25725;-64
2022/06/09 06:45:35;;;;;;;18.65;16.65;;;;;;;23.17;77.05;99623.47;1735371;82;25779;-64
2022/06/09 06:48:02;;;;;;;19.90;17.02;;;;;;;23.24;76.70;99623.98;1742267;82;28972;-64
2022/06/09 06:50:28;;;;;;;17.60;15.75;;;;;;;23.30;76.28;99624.50;1740964;82;25434;-64
2022/06/09 06:52:54;;;;;;;20.17;17.30;;;;;;;23.41;76.09;99630.48;1747644;82;25634;-64
2022/06/09 06:55:23;;;;;;;18.27;16.37;;;;;;;23.54;75.98;99636.26;1735236;82;25909;-64
2022/06/09 06:57:50;;;;;;;17.55;15.68;;;;;;;23.64;75.49;99643.63;1735595;82;25441;-64
2022/06/09 07:00:21;;;;;;;17.48;15.68;;;;;;;23.74;74.95;99645.46;1735414;82;27126;-65
2022/06/09 07:02:49;;;;;;;17.17;15.38;;;;;;;23.84;74.45;99645.95;1746904;82;26218;-63
2022/06/09 07:05:17;;;;;;;16.62;15.03;;;;;;;23.96;74.46;99645.98;1738306;82;25738;-64
2022/06/09 07:07:43;;;;;;;17.48;15.75;;;;;;;24.05;73.67;99649.61;1745688;82;26038;-65
2022/06/09 07:10:11;;;;;;;17.23;15.53;;;;;;;24.14;73.44;99652.62;1735426;82;25469;-65
2022/06/09 07:12:38;;;;;;;15.88;14.13;;;;;;;24.20;73.33;99652.34;1746072;82;27392;-65
2022/06/09 07:15:07;;;;;;;15.95;14.50;;;;;;;24.27;72.95;99653.44;1737137;82;25583;-65
2022/06/09 07:17:33;;;;;;;15.15;13.75;;;;;;;24.30;72.76;99660.91;1735460;82;25626;-65
2022/06/09 07:19:59;;;;;;;16.20;14.58;;;;;;;24.34;72.30;99665.16;1742059;82;25431;-65
2022/06/09 07:22:25;;;;;;;15.75;14.15;;;;;;;24.39;71.99;99651.47;1741327;82;25475;-66
2022/06/09 07:24:55;;;;;;;16.57;14.58;;;;;;;24.42;71.35;99649.26;1735223;82;27414;-64
2022/06/09 07:27:20;;;;;;;19.00;17.07;;;;;;;24.43;71.33;99646.66;1733347;81;25545;-64
2022/06/09 07:29:46;;;;;;;62.15;19.77;;;;;;;24.45;71.51;99647.62;1745217;82;25692;-64
2022/06/09 07:32:12;;;;;;;19.05;14.85;;;;;;;24.50;71.26;99646.56;1735225;82;25626;-66
2022/06/09 07:34:38;;;;;;;16.65;14.70;;;;;;;24.54;71.04;99636.83;1735249;82;25367;-65
2022/06/09 07:37:06;;;;;;;16.10;14.45;;;;;;;24.58;71.22;99642.48;1747729;82;27408;-66
2022/06/09 07:39:33;;;;;;;15.63;14.00;;;;;;;24.72;71.22;99643.45;1739247;82;25763;-66
2022/06/09 07:42:00;;;;;;;16.65;14.25;;;;;;;24.87;71.24;99637.08;1750474;82;25782;-66
2022/06/09 07:44:27;;;;;;;15.00;13.60;;;;;;;25.05;71.03;99634.77;1741012;82;25634;-66
2022/06/09 07:46:53;;;;;;;15.25;13.85;;;;;;;25.26;70.69;99632.83;1747578;82;25612;-66
2022/06/09 07:49:19;;;;;;;16.05;14.18;;;;;;;25.63;70.99;99628.13;1738126;82;27367;-66
2022/06/09 07:51:45;;;;;;;14.78;13.50;;;;;;;25.94;69.88;99616.77;1745398;82;25580;-66
2022/06/09 07:54:12;;;;;;;14.90;13.40;;;;;;;26.23;68.98;99619.06;1735248;82;25718;-65
2022/06/09 07:56:39;;;;;;;14.73;13.43;;;;;;;26.62;69.07;99606.84;1745986;82;25914;-66
2022/06/09 07:59:06;;;;;;;15.03;13.35;;;;;;;27.01;67.72;99607.82;1737707;82;25405;-66
2022/06/09 08:01:34;;;;;;;14.15;12.65;;;;;;;27.44;67.94;99609.41;1746549;81;27254;-65
2022/06/09 08:04:02;;;;;;;13.98;12.73;;;;;;;27.88;67.23;99608.29;1742120;82;25944;-65
2022/06/09 08:06:28;;;;;;;14.47;12.70;;;;;;;28.23;65.25;99602.86;1740910;82;25419;-66
2022/06/09 08:08:59;;;;;;;14.28;12.80;;;;;;;28.51;64.07;99605.29;1747518;82;25660;-65
2022/06/09 08:11:32;;;;;;;13.28;11.55;;;;;;;28.74;62.76;99603.38;1726191;82;25702;-66
2022/06/09 08:14:01;;;;;;;14.00;12.60;;;;;;;28.99;62.46;99603.88;1735064;82;27394;-66
2022/06/09 08:16:29;;;;;;;13.28;11.95;;;;;;;29.28;61.56;99603.48;1744541;82;25794;-66
2022/06/09 08:18:57;;;;;;;13.15;11.95;;;;;;;29.68;60.90;99609.13;1737704;82;25406;-65
2022/06/09 08:21:26;;;;;;;13.35;11.97;;;;;;;29.99;59.72;99606.96;1700263;82;25576;-65
2022/06/09 08:23:53;;;;;;;15.48;13.98;;;;;;;30.26;58.69;99604.87;1719531;82;25625;-66
2022/06/09 08:26:20;;;;;;;15.08;13.58;;;;;;;30.43;58.16;99599.82;1743820;81;27261;-65
2022/06/09 08:28:46;;;;;;;14.13;12.82;;;;;;;30.58;57.07;99608.38;1738579;82;25773;-65
2022/06/09 08:31:13;;;;;;;11.75;10.58;;;;;;;30.83;57.10;99609.30;1721956;82;25630;-66
2022/06/09 08:33:40;;;;;;;11.97;10.82;;;;;;;31.07;55.74;99607.47;1735621;82;25714;-66
2022/06/09 08:36:08;;;;;;;12.55;10.40;;;;;;;31.36;55.18;99611.73;1735747;81;25640;-66
2022/06/09 08:38:34;;;;;;;11.38;10.35;;;;;;;31.55;54.53;99613.92;1736094;81;27320;-64
2022/06/09 08:41:34;;;;;;;11.43;9.58;;;;;;;31.74;53.41;99616.02;1735015;82;25404;-66
2022/06/09 08:44:37;;;;;;;10.78;9.78;;;;;;;31.79;53.10;99613.19;1742332;82;25663;-72
2022/06/09 08:47:25;;;;;;;10.40;9.58;;;;;;;31.83;52.37;99608.98;1756893;81;25827;-71
2022/06/09 08:50:08;;;;;;;11.93;9.78;;;;;;;31.74;51.28;99610.44;1735185;82;25555;-70
2022/06/09 08:52:43;;;;;;;9.65;8.78;;;;;;;31.64;50.53;99609.69;1744025;81;27317;-71
2022/06/09 08:55:40;;;;;;;10.18;9.20;;;;;;;31.45;50.55;99606.78;1747604;82;25477;-71
2022/06/09 08:58:20;;;;;;;11.45;10.03;;;;;;;31.35;50.86;99612.23;1742755;82;25643;-72
2022/06/09 09:01:04;;;;;;;9.45;8.65;;;;;;;31.32;50.40;99612.54;1738569;82;25709;-70
2022/06/09 09:03:56;;;;;;;9.63;8.73;;;;;;;31.25;50.68;99613.63;1723906;82;25473;-70
2022/06/09 09:06:36;;;;;;;9.45;8.60;;;;;;;31.43;51.10;99612.04;1685955;84;27346;-70
2022/06/09 09:09:27;;;;;;;10.63;9.53;;;;;;;31.58;50.54;99613.59;1678086;84;25858;-71
2022/06/09 09:12:31;;;;;;;9.85;9.03;;;;;;;31.75;49.80;99610.56;1665833;85;25668;-71
2022/06/09 09:15:24;;;;;;;10.03;9.13;;;;;;;31.95;49.71;99615.61;1666685;85;25679;-71
2022/06/09 09:18:07;;;;;;;10.00;9.03;;;;;;;32.13;49.29;99618.19;1664248;86;25669;-71
2022/06/09 09:20:43;;;;;;;9.38;8.58;;;;;;;31.98;48.32;99623.06;1663701;85;28141;-71
2022/06/09 09:23:15;;;;;;;10.75;9.65;;;;;;;32.15;48.65;99617.88;1663029;85;25788;-71
2022/06/09 09:25:58;;;;;;;10.25;9.35;;;;;;;32.27;48.69;99616.73;1662798;86;25445;-74
2022/06/09 09:28:44;;;;;;;10.65;9.58;;;;;;;32.25;48.29;99617.81;1664182;86;25698;-72
2022/06/09 09:31:37;;;;;;;9.70;8.70;;;;;;;32.10;47.68;99614.97;1689302;84;25732;-73
2022/06/09 09:34:04;;;;;;;11.97;10.28;;;;;;;31.93;47.53;99608.33;1699558;84;27387;-71
2022/06/09 09:36:38;;;;;;;11.28;8.70;;;;;;;31.76;48.10;99609.33;1699430;84;25661;-71
2022/06/09 09:39:19;;;;;;;9.70;8.73;;;;;;;31.76;48.59;99605.14;1699541;84;25558;-72
2022/06/09 09:41:46;;;;;;;9.18;8.40;;;;;;;31.73;47.34;99610.91;1699705;84;25688;-73
2022/06/09 09:44:26;;;;;;;9.53;8.50;;;;;;;31.49;47.23;99604.58;1699573;84;25861;-73
2022/06/09 09:46:57;;;;;;;13.18;9.18;;;;;;;31.41;48.23;99610.34;1699529;84;27405;-72
2022/06/09 09:49:31;;;;;;;8.83;8.13;;;;;;;31.38;47.84;99604.29;1699449;84;25480;-72
2022/06/09 09:51:59;;;;;;;34.30;10.82;;;;;;;31.31;47.60;99605.39;1699213;84;25421;-73
2022/06/09 09:54:38;;;;;;;12.78;9.38;;;;;;;31.33;47.71;99604.32;1699451;84;25707;-72
2022/06/09 09:57:19;;;;;;;13.65;8.08;;;;;;;31.46;48.23;99608.31;1699558;84;25503;-72
2022/06/09 09:59:53;;;;;;;8.63;7.20;;;;;;;31.54;47.96;99608.16;1699266;83;27359;-71
2022/06/09 10:08:39;;;;;;;10.28;8.05;;;;;;;31.65;46.97;99604.26;1699451;84;25958;-71
2022/06/09 10:14:36;;;;;;;9.70;8.00;;;;;;;31.75;45.34;99600.78;1699545;84;27351;-72
2022/06/09 10:17:09;;;;;;;9.80;7.47;;;;;;;31.70;45.77;99599.27;1698696;84;25992;-73
2022/06/09 10:19:35;;;;;;;22.70;9.15;;;;;;;31.73;46.19;99594.89;1697024;84;25661;-73
2022/06/09 10:22:22;;;;;;;8.00;7.20;;;;;;;31.68;45.87;99591.34;1699403;84;25767;-73
2022/06/09 10:25:15;;;;;;;8.18;7.45;;;;;;;31.67;46.08;99600.20;1699608;84;25315;-73
2022/06/09 10:27:45;;;;;;;8.18;7.45;;;;;;;32.01;46.45;99591.97;1699608;84;27501;-73
2022/06/09 10:30:29;;;;;;;13.48;8.88;;;;;;;32.51;45.41;99592.95;1699350;84;25480;-73
2022/06/09 10:33:01;;;;;;;7.97;7.10;;;;;;;32.74;45.05;99588.58;1699473;84;25584;-71
2022/06/09 10:35:39;;;;;;;12.43;7.35;;;;;;;33.00;43.58;99581.83;1698939;83;25853;-71
2022/06/09 10:38:14;;;;;;;7.15;6.45;;;;;;;33.21;42.70;99592.54;1734786;82;25736;-72
2022/06/09 10:40:48;;;;;;;17.82;6.90;;;;;;;33.32;43.19;99582.14;1734424;82;27437;-70
2022/06/09 10:43:29;;;;;;;9.23;6.97;;;;;;;33.50;42.82;99588.95;1733976;82;25763;-72
2022/06/09 10:46:00;;;;;;;7.47;6.58;;;;;;;33.71;43.05;99584.07;1734853;82;25523;-71
2022/06/09 10:57:37;;;;;;;7.40;6.70;;;;;;;34.19;41.44;99580.30;1647811;87;25492;-72
2022/06/09 11:00:15;;;;;;;8.63;6.83;;;;;;;34.19;41.13;99583.72;1629888;87;25502;-71
2022/06/09 11:02:46;;;;;;;8.07;6.63;;;;;;;34.17;39.30;99582.05;1639704;87;25717;-72
2022/06/09 11:05:20;;;;;;;6.87;5.75;;;;;;;34.18;39.44;99585.77;1671517;84;26855;-67
2022/06/09 11:08:00;;;;;;;7.30;6.60;;;;;;;34.30;39.84;99585.31;1629011;86;27540;-67
2022/06/09 11:10:50;;;;;;;7.00;6.37;;;;;;;34.28;39.45;99578.66;1634612;86;27249;-66
2022/06/09 11:13:43;;;;;;;6.00;5.60;;;;;;;34.28;39.96;99584.27;1641279;85;25745;-67
2022/06/09 11:16:20;;;;;;;9.60;6.83;;;;;;;34.24;39.62;99590.06;1662639;85;27474;-68
2022/06/09 11:19:41;;;;;;;7.62;6.92;;;;;;;34.22;38.22;99583.57;1622881;87;25791;-67
2022/06/09 11:22:36;;;;;;;8.60;5.95;;;;;;;34.22;38.22;99583.57;1616179;88;28017;-68
2022/06/09 11:25:47;;;;;;;7.17;6.47;;;;;;;34.11;39.24;99558.77;1599084;87;25924;-68
2022/06/09 11:28:24;;;;;;;6.97;6.37;;;;;;;34.33;38.53;99571.70;1634865;86;26049;-68
2022/06/09 11:31:14;;;;;;;9.50;6.35;;;;;;;34.57;39.16;99560.89;1659113;86;25523;-68
2022/06/09 11:34:04;;;;;;;8.43;7.05;;;;;;;34.76;38.67;99559.97;1621892;86;25725;-68
2022/06/09 11:36:47;;;;;;;9.53;6.55;;;;;;;34.97;38.70;99550.84;1648741;86;27639;-68
2022/06/09 11:39:37;;;;;;;8.48;5.78;;;;;;;35.03;37.38;99550.28;1651789;86;25752;-69
2022/06/09 11:42:27;;;;;;;10.38;6.10;;;;;;;35.02;37.31;99553.58;1573256;90;25689;-69
2022/06/09 11:44:57;;;;;;;9.10;6.67;;;;;;;35.20;37.13;99553.23;1554204;92;25567;-69
2022/06/09 11:47:28;;;;;;;8.15;6.17;;;;;;;35.36;36.11;99550.45;1579770;90;25932;-70
2022/06/09 11:50:02;;;;;;;8.60;6.80;;;;;;;35.49;35.83;99550.05;1563969;90;28008;-69
2022/06/09 11:52:37;;;;;;;9.23;6.58;;;;;;;35.54;35.92;99540.23;1569028;90;25850;-70
2022/06/09 11:55:27;;;;;;;7.45;6.30;;;;;;;35.66;35.49;99529.84;1532078;89;25741;-68
2022/06/09 11:57:55;;;;;;;7.08;6.40;;;;;;;35.74;35.90;99523.77;1624315;87;26074;-68
2022/06/09 12:00:34;;;;;;;10.08;6.67;;;;;;;35.65;35.19;99524.06;1614363;88;25824;-70
2022/06/09 12:03:30;;;;;;;12.10;6.58;;;;;;;35.62;35.72;99522.89;1638587;87;27946;-70
2022/06/09 12:06:17;;;;;;;7.97;6.90;;;;;;;35.72;35.79;99515.83;1622481;87;25735;-70
2022/06/09 12:09:23;;;;;;;7.00;6.50;;;;;;;35.87;35.66;99512.20;1641490;87;25752;-69
2022/06/09 12:11:58;;;;;;;6.85;6.25;;;;;;;35.84;35.11;99513.23;1626243;87;25989;-70
2022/06/09 12:14:36;;;;;;;7.22;6.33;;;;;;;35.99;34.76;99507.40;1643170;87;25784;-69
2022/06/09 12:17:22;;;;;;;7.22;6.50;;;;;;;35.92;34.59;99495.87;1641427;87;27382;-68